Terminal Aerodrome Forecast
Issued by NWS

Home | Current Version | Previous Version | Text Only | Print | Product List | Glossary On
Versions: 1 2 3 4 5 6 7 8 9 10 11 12 13 14
000
FTAK31 PANC 190736 AAA
TAFADQ
TAF AMD
PADQ 190736Z 1908/2006 VRB05KT 3SM -SN SCT015 OVC025
      TEMPO 1908/1909 3/4SM -SN OVC015
     FM190900 20006KT 2SM -SN BR OVC015
      TEMPO 1909/1913 3/4SM -SN BR OVC008
     FM191400 14006KT 3SM -SN BR SCT015 OVC030
     FM192200 33018G28KT 1SM -SN BLSN FEW007 OVC012=

USA.gov is the U.S. government's official web portal to all federal, state and local government web resources and services.